createdAt,value
2023-01-26T00:01:06.054Z,31.92
2023-01-26T00:03:34.129Z,32.04
2023-01-26T00:06:00.711Z,32.13
2023-01-26T00:08:27.163Z,31.48
2023-01-26T00:10:53.667Z,31.79
2023-01-26T00:13:20.118Z,31.02
2023-01-26T00:15:46.727Z,31.98
2023-01-26T00:18:13.295Z,32.05
2023-01-26T00:20:39.794Z,32.12
2023-01-26T00:23:06.336Z,32.75
2023-01-26T00:25:32.813Z,33.21
2023-01-26T00:27:59.293Z,33.56
2023-01-26T00:30:34.826Z,32.57
2023-01-26T00:33:01.401Z,32.77
2023-01-26T00:35:27.854Z,33.14
2023-01-26T00:37:54.233Z,32.50
2023-01-26T00:40:20.681Z,32.85
2023-01-26T00:42:48.230Z,32.92
2023-01-26T00:45:14.686Z,33.03
2023-01-26T00:47:41.161Z,32.85
2023-01-26T00:50:07.685Z,33.25
2023-01-26T00:52:34.296Z,31.96
2023-01-26T00:55:00.794Z,32.53
2023-01-26T00:57:28.214Z,32.56
2023-01-26T00:59:54.723Z,32.82
2023-01-26T01:02:21.202Z,32.66
2023-01-26T01:04:47.710Z,32.70
2023-01-26T01:07:14.141Z,32.99
2023-01-26T01:09:40.610Z,33.04
2023-01-26T01:12:07.065Z,31.93
2023-01-26T01:14:33.552Z,31.66
2023-01-26T01:17:00.139Z,31.21
2023-01-26T01:19:26.586Z,30.34
2023-01-26T01:21:53.048Z,28.27
2023-01-26T01:24:19.535Z,26.11
2023-01-26T01:26:48.539Z,26.13
2023-01-26T01:29:15.069Z,25.39
2023-01-26T01:31:41.646Z,25.48
2023-01-26T01:34:08.154Z,28.30
2023-01-26T01:36:34.676Z,29.68
2023-01-26T01:39:01.130Z,31.28
2023-01-26T01:41:27.584Z,31.65
2023-01-26T01:43:54.076Z,32.72
2023-01-26T01:46:20.551Z,33.20
2023-01-26T01:48:47.062Z,32.99
2023-01-26T01:51:13.532Z,32.94
2023-01-26T01:53:40.043Z,32.58
2023-01-26T01:56:12.696Z,33.15
2023-01-26T01:58:39.278Z,32.07
2023-01-26T02:01:07.936Z,31.89
2023-01-26T02:03:34.449Z,30.45
2023-01-26T02:06:00.865Z,30.35
2023-01-26T02:08:27.331Z,30.70
2023-01-26T02:10:53.795Z,30.71
2023-01-26T02:13:20.282Z,29.50
2023-01-26T02:15:46.956Z,28.70
2023-01-26T02:18:13.361Z,29.40
2023-01-26T02:20:39.771Z,29.68
2023-01-26T02:23:06.247Z,29.85
2023-01-26T02:25:32.669Z,29.43
2023-01-26T02:27:59.102Z,29.91
2023-01-26T02:30:25.580Z,29.60
2023-01-26T02:32:53.012Z,29.76
2023-01-26T02:35:19.526Z,29.92
2023-01-26T02:37:45.957Z,30.59
2023-01-26T02:40:12.568Z,31.43
2023-01-26T02:42:39.181Z,30.97
2023-01-26T02:45:06.649Z,32.43
2023-01-26T02:47:33.102Z,32.21
2023-01-26T02:49:59.516Z,31.33
2023-01-26T02:52:26.026Z,30.92
2023-01-26T02:54:52.499Z,30.98
2023-01-26T02:57:18.959Z,29.98
2023-01-26T02:59:45.838Z,30.07
2023-01-26T03:02:12.300Z,29.84
2023-01-26T03:04:38.734Z,29.92
2023-01-26T03:07:05.829Z,28.99
2023-01-26T03:09:32.318Z,28.50
2023-01-26T03:11:58.745Z,28.30
2023-01-26T03:14:25.204Z,28.55
2023-01-26T03:16:51.635Z,28.13
2023-01-26T03:19:20.981Z,28.27
2023-01-26T03:21:47.429Z,27.76
2023-01-26T03:24:14.167Z,27.41
2023-01-26T03:26:41.683Z,27.88
2023-01-26T03:29:08.167Z,27.37
2023-01-26T03:31:34.595Z,27.06
2023-01-26T03:34:01.069Z,27.42
2023-01-26T03:36:27.605Z,27.36
2023-01-26T03:38:54.115Z,27.10
2023-01-26T03:41:20.597Z,27.25
2023-01-26T03:43:47.403Z,28.04
2023-01-26T03:46:13.828Z,27.86
2023-01-26T03:48:40.250Z,28.60
2023-01-26T03:51:06.641Z,28.35
2023-01-26T03:53:33.046Z,28.65
2023-01-26T03:55:59.507Z,28.77
2023-01-26T03:58:25.978Z,29.92
2023-01-26T04:00:52.369Z,29.42
2023-01-26T04:03:18.786Z,29.38
2023-01-26T04:05:45.222Z,29.77
2023-01-26T04:08:11.670Z,30.29
2023-01-26T04:10:38.054Z,30.63
2023-01-26T04:13:04.465Z,29.49
2023-01-26T04:15:30.871Z,29.00
2023-01-26T04:17:57.302Z,28.95
2023-01-26T04:20:23.705Z,29.49
2023-01-26T04:22:50.143Z,30.08
2023-01-26T04:25:17.575Z,29.38
2023-01-26T04:27:44.045Z,29.17
2023-01-26T04:30:10.795Z,28.97
2023-01-26T04:32:37.504Z,29.92
2023-01-26T04:35:04.014Z,29.89
2023-01-26T04:37:30.465Z,30.49
2023-01-26T04:39:56.818Z,30.34
2023-01-26T04:42:23.284Z,29.96
2023-01-26T04:44:49.792Z,29.64
2023-01-26T04:47:16.413Z,29.59
2023-01-26T04:49:42.925Z,29.64
2023-01-26T04:52:09.415Z,29.69
2023-01-26T04:54:35.860Z,30.49
2023-01-26T04:57:02.303Z,29.59
2023-01-26T04:59:28.731Z,30.71
2023-01-26T05:01:55.657Z,30.74
2023-01-26T05:04:22.208Z,30.71
2023-01-26T05:06:48.748Z,30.29
2023-01-26T05:09:15.180Z,30.74
2023-01-26T05:11:42.901Z,30.13
2023-01-26T05:14:09.379Z,30.85
2023-01-26T05:16:35.880Z,30.70
2023-01-26T05:19:02.370Z,29.89
2023-01-26T05:21:28.823Z,29.94
2023-01-26T05:23:55.370Z,29.37
2023-01-26T05:26:21.813Z,30.57
2023-01-26T05:28:48.219Z,31.88
2023-01-26T05:31:14.694Z,31.22
2023-01-26T05:33:41.165Z,32.14
2023-01-26T05:38:57.624Z,32.63
2023-01-26T05:41:24.611Z,38.03
2023-01-26T05:43:51.017Z,41.47
2023-01-26T05:46:17.474Z,33.49
2023-01-26T05:48:43.920Z,32.67
2023-01-26T05:51:10.320Z,32.08
2023-01-26T05:53:36.714Z,31.32
2023-01-26T05:56:03.147Z,32.00
2023-01-26T05:58:29.556Z,31.24
2023-01-26T06:00:55.971Z,31.15
2023-01-26T06:03:22.432Z,30.64
2023-01-26T06:05:48.850Z,31.48
2023-01-26T06:08:15.310Z,31.13
2023-01-26T06:10:41.762Z,30.53
2023-01-26T06:13:08.312Z,31.63
2023-01-26T06:15:34.791Z,31.80
2023-01-26T06:18:01.304Z,31.73
2023-01-26T06:20:27.759Z,31.46
2023-01-26T06:22:54.193Z,31.52
2023-01-26T06:25:23.494Z,31.32
2023-01-26T06:27:51.702Z,32.06
2023-01-26T06:30:18.160Z,31.46
2023-01-26T06:32:44.650Z,32.06
2023-01-26T06:35:11.090Z,31.87
2023-01-26T06:37:37.522Z,31.82
2023-01-26T06:40:03.977Z,32.54
2023-01-26T06:42:31.526Z,33.64
2023-01-26T06:44:57.972Z,33.63
2023-01-26T06:47:24.472Z,32.41
2023-01-26T06:49:58.189Z,32.30
2023-01-26T06:52:24.573Z,32.20
2023-01-26T06:54:54.023Z,32.17
2023-01-26T06:57:20.479Z,32.76
2023-01-26T06:59:57.661Z,33.09
2023-01-26T07:02:24.121Z,32.73
2023-01-26T07:04:50.646Z,32.33
2023-01-26T07:07:17.129Z,32.54
2023-01-26T07:09:43.570Z,32.66
2023-01-26T07:12:10.048Z,31.84
2023-01-26T07:14:39.486Z,32.27
2023-01-26T07:17:05.941Z,31.71
2023-01-26T07:19:35.328Z,31.28
2023-01-26T07:22:01.919Z,32.52
2023-01-26T07:24:31.536Z,32.83
2023-01-26T07:26:57.999Z,34.53
2023-01-26T07:29:25.719Z,33.79
2023-01-26T07:31:52.447Z,34.35
2023-01-26T07:34:20.502Z,33.46
2023-01-26T07:36:46.980Z,33.99
2023-01-26T07:39:13.414Z,32.20
2023-01-26T07:41:39.812Z,32.94
2023-01-26T07:44:06.188Z,33.25
2023-01-26T07:46:32.653Z,33.70
2023-01-26T07:48:59.117Z,33.93
2023-01-26T07:51:25.572Z,33.24
2023-01-26T07:53:52.105Z,33.84
2023-01-26T07:56:21.002Z,34.14
2023-01-26T07:58:47.406Z,33.04
2023-01-26T08:01:14.289Z,32.98
2023-01-26T08:03:41.250Z,33.30
2023-01-26T08:08:48.405Z,32.96
2023-01-26T08:11:14.860Z,32.94
2023-01-26T08:13:41.364Z,33.02
2023-01-26T08:16:07.888Z,32.40
2023-01-26T08:18:34.343Z,32.66
2023-01-26T08:21:00.844Z,32.83
2023-01-26T08:23:27.445Z,34.48
2023-01-26T08:25:53.903Z,32.30
2023-01-26T08:28:21.261Z,28.60
2023-01-26T08:30:47.882Z,29.06
2023-01-26T08:33:14.315Z,28.42
2023-01-26T08:35:41.325Z,27.51
2023-01-26T08:38:07.819Z,27.98
2023-01-26T08:40:34.381Z,28.26
2023-01-26T08:43:00.910Z,27.52
2023-01-26T08:45:27.769Z,27.13
2023-01-26T08:47:54.222Z,27.68
2023-01-26T08:50:20.711Z,27.69
2023-01-26T08:52:47.176Z,27.86
2023-01-26T08:55:13.683Z,27.51
2023-01-26T08:57:41.151Z,26.32
2023-01-26T09:00:07.717Z,27.10
2023-01-26T09:02:34.283Z,27.31
2023-01-26T09:05:00.770Z,28.38
2023-01-26T09:07:27.190Z,29.05
2023-01-26T09:09:53.715Z,29.74
2023-01-26T09:12:20.157Z,29.64
2023-01-26T09:14:46.579Z,27.91
2023-01-26T09:17:13.045Z,29.50
2023-01-26T09:19:40.474Z,29.48
2023-01-26T09:22:06.991Z,30.22
2023-01-26T09:24:33.501Z,30.72
2023-01-26T09:27:00.258Z,30.98
2023-01-26T09:29:26.757Z,30.81
2023-01-26T09:31:53.329Z,30.41
2023-01-26T09:34:19.848Z,30.55
2023-01-26T09:36:46.340Z,29.13
2023-01-26T09:39:12.842Z,29.68
2023-01-26T09:41:40.247Z,30.24
2023-01-26T09:44:06.722Z,28.38
2023-01-26T09:46:33.247Z,27.19
2023-01-26T09:48:59.778Z,26.76
2023-01-26T09:51:26.273Z,26.52
2023-01-26T09:53:52.635Z,28.07
2023-01-26T09:56:19.148Z,27.19
2023-01-26T10:01:26.010Z,27.46
2023-01-26T10:03:52.444Z,26.51
2023-01-26T10:06:18.896Z,26.91
2023-01-26T10:08:45.353Z,27.35
2023-01-26T10:11:11.744Z,27.12
2023-01-26T10:13:38.204Z,28.14
2023-01-26T10:16:04.680Z,27.43
2023-01-26T10:18:32.239Z,26.24
2023-01-26T10:20:58.758Z,28.08
2023-01-26T10:23:25.263Z,29.52
2023-01-26T10:25:51.713Z,31.04
2023-01-26T10:28:18.114Z,31.95
2023-01-26T10:30:44.756Z,31.43
2023-01-26T10:33:12.490Z,32.14
2023-01-26T10:35:38.865Z,31.32
2023-01-26T10:38:05.350Z,31.40
2023-01-26T10:40:31.791Z,31.30
2023-01-26T10:42:58.301Z,31.71
2023-01-26T10:45:24.845Z,31.71
2023-01-26T10:47:51.379Z,31.21
2023-01-26T10:50:17.903Z,31.65
2023-01-26T10:52:44.335Z,31.97
2023-01-26T10:55:11.063Z,32.34
2023-01-26T10:57:37.646Z,32.08
2023-01-26T11:00:04.170Z,31.44
2023-01-26T11:02:30.687Z,31.25
2023-01-26T11:05:00.043Z,31.66
2023-01-26T11:07:26.699Z,31.83
2023-01-26T11:09:53.595Z,31.36
2023-01-26T11:12:21.288Z,31.23
2023-01-26T11:14:47.701Z,31.63
2023-01-26T11:17:14.191Z,31.64
2023-01-26T11:19:48.779Z,31.27
2023-01-26T11:22:15.369Z,30.14
2023-01-26T11:24:42.633Z,31.30
2023-01-26T11:27:09.244Z,31.06
2023-01-26T11:29:35.633Z,31.02
2023-01-26T11:32:02.094Z,30.34
2023-01-26T11:34:28.494Z,30.80
2023-01-26T11:36:54.957Z,32.76
2023-01-26T11:39:21.342Z,29.74
2023-01-26T11:41:47.880Z,29.24
2023-01-26T11:44:14.295Z,29.07
2023-01-26T11:46:40.710Z,28.93
2023-01-26T11:49:07.165Z,30.21
2023-01-26T11:51:33.659Z,31.96
2023-01-26T11:54:00.261Z,30.88
2023-01-26T11:56:26.657Z,29.40
2023-01-26T11:58:53.102Z,30.33
2023-01-26T12:01:19.596Z,29.22
2023-01-26T12:03:46.155Z,28.73
2023-01-26T12:06:13.734Z,27.63
2023-01-26T12:08:43.422Z,26.81
2023-01-26T12:11:09.870Z,26.70
2023-01-26T12:13:36.269Z,27.87
2023-01-26T12:16:02.793Z,28.71
2023-01-26T12:18:42.227Z,27.22
2023-01-26T12:21:15.477Z,26.20
2023-01-26T12:23:42.059Z,26.29
2023-01-26T12:26:08.458Z,25.49
2023-01-26T12:28:34.983Z,24.71
2023-01-26T12:31:01.532Z,24.62
2023-01-26T12:33:27.948Z,24.71
2023-01-26T12:35:54.407Z,27.14
2023-01-26T12:38:20.840Z,28.58
2023-01-26T12:40:48.262Z,28.50
2023-01-26T12:43:14.705Z,27.37
2023-01-26T12:45:41.135Z,28.00
2023-01-26T12:48:07.528Z,28.79
2023-01-26T12:50:33.964Z,28.98
2023-01-26T12:53:00.377Z,29.25
2023-01-26T12:55:26.923Z,29.18
2023-01-26T12:57:53.408Z,29.19
2023-01-26T13:00:20.034Z,28.83
2023-01-26T13:02:46.585Z,27.72
2023-01-26T13:05:13.126Z,27.86
2023-01-26T13:07:39.610Z,26.52
2023-01-26T13:10:06.705Z,27.07
2023-01-26T13:12:33.227Z,26.81
2023-01-26T13:17:56.172Z,25.98
2023-01-26T13:20:22.772Z,25.80
2023-01-26T13:25:29.524Z,26.44
2023-01-26T13:27:55.946Z,26.87
2023-01-26T13:30:22.406Z,26.08
2023-01-26T13:32:49.013Z,26.59
2023-01-26T13:35:15.470Z,26.09
2023-01-26T13:37:46.948Z,25.96
2023-01-26T13:40:13.724Z,25.37
2023-01-26T13:42:40.316Z,25.75
2023-01-26T13:45:06.703Z,24.90
2023-01-26T13:47:33.137Z,24.16
2023-01-26T13:49:59.574Z,24.67
2023-01-26T13:52:25.988Z,24.06
2023-01-26T13:54:52.425Z,24.52
2023-01-26T13:57:18.908Z,23.86
2023-01-26T13:59:45.353Z,23.21
2023-01-26T14:02:11.794Z,23.77
2023-01-26T14:04:38.238Z,23.11
2023-01-26T14:07:04.673Z,23.25
2023-01-26T14:09:31.106Z,23.12
2023-01-26T14:11:57.598Z,22.82
2023-01-26T14:14:24.072Z,22.09
2023-01-26T14:16:50.629Z,22.31
2023-01-26T14:19:17.067Z,22.61
2023-01-26T14:21:43.524Z,22.43
2023-01-26T14:24:10.065Z,22.68
2023-01-26T14:26:36.524Z,22.02
2023-01-26T14:29:02.980Z,22.51
2023-01-26T14:31:29.523Z,21.28
2023-01-26T14:33:56.011Z,21.96
2023-01-26T14:36:22.447Z,22.21
2023-01-26T14:38:49.917Z,20.57
2023-01-26T14:41:16.420Z,20.12
2023-01-26T14:43:42.919Z,20.48
2023-01-26T14:46:09.539Z,20.99
2023-01-26T14:48:36.103Z,20.71
2023-01-26T14:51:02.490Z,21.42
2023-01-26T14:53:28.906Z,20.94
2023-01-26T14:55:55.387Z,20.49
2023-01-26T14:58:21.911Z,19.41
2023-01-26T15:00:48.382Z,19.44
2023-01-26T15:03:14.884Z,19.75
2023-01-26T15:05:41.376Z,19.79
2023-01-26T15:08:07.843Z,20.46
2023-01-26T15:10:35.281Z,20.27
2023-01-26T15:13:01.719Z,20.23
2023-01-26T15:15:30.283Z,20.39
2023-01-26T15:17:56.697Z,20.64
2023-01-26T15:20:23.219Z,22.00
2023-01-26T15:22:49.673Z,20.40
2023-01-26T15:25:16.131Z,23.27
2023-01-26T15:27:42.587Z,21.47
2023-01-26T15:30:09.004Z,20.80
2023-01-26T15:32:35.431Z,21.16
2023-01-26T15:35:02.034Z,21.54
2023-01-26T15:37:28.549Z,20.72
2023-01-26T15:39:54.995Z,21.09
2023-01-26T15:42:21.502Z,20.79
2023-01-26T15:47:28.425Z,20.58
2023-01-26T15:49:55.196Z,19.60
2023-01-26T15:52:21.691Z,19.83
2023-01-26T15:54:48.162Z,19.90
2023-01-26T15:57:14.643Z,20.12
2023-01-26T15:59:41.159Z,21.71
2023-01-26T16:02:07.879Z,20.97
2023-01-26T16:04:34.294Z,20.77
2023-01-26T16:07:00.726Z,20.63
2023-01-26T16:09:27.135Z,20.22
2023-01-26T16:11:53.599Z,20.52
2023-01-26T16:14:21.196Z,19.56
2023-01-26T16:16:47.689Z,18.73
2023-01-26T16:19:20.521Z,19.25
2023-01-26T16:24:33.264Z,20.49
2023-01-26T16:26:59.756Z,19.89
2023-01-26T16:29:26.510Z,20.64
2023-01-26T16:31:53.016Z,18.72
2023-01-26T16:34:19.494Z,18.61
2023-01-26T16:36:45.961Z,18.32
2023-01-26T16:39:12.406Z,18.61
2023-01-26T16:41:38.940Z,18.53
2023-01-26T16:44:05.491Z,19.81
2023-01-26T16:46:31.993Z,18.52
2023-01-26T16:48:58.505Z,18.67
2023-01-26T16:51:25.085Z,18.57
2023-01-26T16:53:51.532Z,18.51
2023-01-26T16:56:18.003Z,19.29
2023-01-26T16:58:44.444Z,20.28
2023-01-26T17:01:10.934Z,20.67
2023-01-26T17:03:37.457Z,20.45
2023-01-26T17:06:03.980Z,20.02
2023-01-26T17:08:30.442Z,19.55
2023-01-26T17:11:02.517Z,20.04
2023-01-26T17:13:29.352Z,19.16
2023-01-26T17:15:55.965Z,19.20
2023-01-26T17:18:22.544Z,20.92
2023-01-26T17:20:48.995Z,23.77
2023-01-26T17:23:15.480Z,22.11
2023-01-26T17:25:42.026Z,23.16
2023-01-26T17:28:08.790Z,22.51
2023-01-26T17:30:36.567Z,25.78
2023-01-26T17:33:03.025Z,25.71
2023-01-26T17:35:29.462Z,27.29
2023-01-26T17:37:55.913Z,28.41
2023-01-26T17:40:22.362Z,32.19
2023-01-26T17:42:48.761Z,32.66
2023-01-26T17:45:15.232Z,31.42
2023-01-26T17:47:44.398Z,28.52
2023-01-26T17:50:10.897Z,23.34
2023-01-26T17:52:37.299Z,22.20
2023-01-26T17:55:03.718Z,21.91
2023-01-26T17:57:30.147Z,20.73
2023-01-26T17:59:56.631Z,20.65
2023-01-26T18:02:23.154Z,19.92
2023-01-26T18:04:56.329Z,20.31
2023-01-26T18:07:24.574Z,19.69
2023-01-26T18:09:50.994Z,20.46
2023-01-26T18:12:19.915Z,20.51
2023-01-26T18:14:46.482Z,20.15
2023-01-26T18:17:12.973Z,20.59
2023-01-26T18:19:39.425Z,19.47
2023-01-26T18:22:05.835Z,20.05
2023-01-26T18:24:32.248Z,20.80
2023-01-26T18:26:58.687Z,19.58
2023-01-26T18:29:25.190Z,20.19
2023-01-26T18:31:52.718Z,19.36
2023-01-26T18:37:16.425Z,22.83
2023-01-26T18:39:42.926Z,22.88
2023-01-26T18:42:14.149Z,23.90
2023-01-26T18:44:40.639Z,21.78
2023-01-26T18:47:07.126Z,20.91
2023-01-26T18:49:33.622Z,19.61
2023-01-26T18:52:00.124Z,19.50
2023-01-26T18:54:26.499Z,19.10
2023-01-26T18:56:52.919Z,18.84
2023-01-26T18:59:19.375Z,18.59
2023-01-26T19:01:45.913Z,18.55
2023-01-26T19:04:12.395Z,19.39
2023-01-26T19:09:20.230Z,16.96
2023-01-26T19:11:51.944Z,18.84
2023-01-26T19:14:18.452Z,19.20
2023-01-26T19:16:44.996Z,18.83
2023-01-26T19:19:11.505Z,19.01
2023-01-26T19:21:38.338Z,18.16
2023-01-26T19:24:04.933Z,18.49
2023-01-26T19:26:31.473Z,17.83
2023-01-26T19:29:05.108Z,18.16
2023-01-26T19:31:31.487Z,18.30
2023-01-26T19:33:57.998Z,18.84
2023-01-26T19:36:24.415Z,18.37
2023-01-26T19:38:50.855Z,18.33
2023-01-26T19:41:17.342Z,17.77
2023-01-26T19:43:43.780Z,18.68
2023-01-26T19:46:10.193Z,20.13
2023-01-26T19:48:36.687Z,23.28
2023-01-26T19:51:23.418Z,20.25
2023-01-26T19:56:30.321Z,18.80
2023-01-26T19:58:56.770Z,19.59
2023-01-26T20:01:38.289Z,19.46
2023-01-26T20:04:07.824Z,18.20
2023-01-26T20:06:34.281Z,17.51
2023-01-26T20:09:00.779Z,18.19
2023-01-26T20:11:27.210Z,19.59
2023-01-26T20:13:53.716Z,19.92
2023-01-26T20:16:20.190Z,20.04
2023-01-26T20:18:46.899Z,20.02
2023-01-26T20:21:13.315Z,19.77
2023-01-26T20:23:45.649Z,19.80
2023-01-26T20:26:14.965Z,19.97
2023-01-26T20:28:41.506Z,19.72
2023-01-26T20:31:07.952Z,20.22
2023-01-26T20:33:34.365Z,19.44
2023-01-26T20:36:00.865Z,19.27
2023-01-26T20:38:27.323Z,19.59
2023-01-26T20:40:53.703Z,22.17
2023-01-26T20:43:20.139Z,21.80
2023-01-26T20:45:46.679Z,22.24
2023-01-26T20:48:13.179Z,22.86
2023-01-26T20:50:39.594Z,20.63
2023-01-26T20:53:06.057Z,18.60
2023-01-26T20:55:32.617Z,19.65
2023-01-26T20:57:59.110Z,20.29
2023-01-26T21:00:25.619Z,19.00
2023-01-26T21:02:52.070Z,18.40
2023-01-26T21:05:18.517Z,20.13
2023-01-26T21:07:45.081Z,19.88
2023-01-26T21:10:11.740Z,19.83
2023-01-26T21:12:38.333Z,20.16
2023-01-26T21:15:04.807Z,20.00
2023-01-26T21:17:31.282Z,19.83
2023-01-26T21:19:57.686Z,21.12
2023-01-26T21:22:25.428Z,20.90
2023-01-26T21:24:51.928Z,21.55
2023-01-26T21:27:18.411Z,23.71
2023-01-26T21:29:45.033Z,24.89
2023-01-26T21:32:13.517Z,24.22
2023-01-26T21:34:40.029Z,22.78
2023-01-26T21:37:06.522Z,20.25
2023-01-26T21:39:33.034Z,21.47
2023-01-26T21:41:59.498Z,21.49
2023-01-26T21:44:25.939Z,22.86
2023-01-26T21:46:52.375Z,23.10
2023-01-26T21:49:18.927Z,23.71
2023-01-26T21:51:45.441Z,23.01
2023-01-26T21:54:11.869Z,23.73
2023-01-26T21:56:38.350Z,23.04
2023-01-26T21:59:04.808Z,23.92
2023-01-26T22:01:31.272Z,25.78
2023-01-26T22:03:57.725Z,34.44
2023-01-26T22:06:24.196Z,41.07
2023-01-26T22:08:50.744Z,36.97
2023-01-26T22:11:18.146Z,26.26
2023-01-26T22:13:44.749Z,22.91
2023-01-26T22:16:11.178Z,28.30
2023-01-26T22:18:37.539Z,34.32
2023-01-26T22:21:03.879Z,25.54
2023-01-26T22:23:30.305Z,22.80
2023-01-26T22:25:56.698Z,21.31
2023-01-26T22:28:24.020Z,20.94
2023-01-26T22:30:50.452Z,19.78
2023-01-26T22:33:17.183Z,20.42
2023-01-26T22:35:43.566Z,19.90
2023-01-26T22:38:10.100Z,20.04
2023-01-26T22:40:36.554Z,20.75
2023-01-26T22:43:03.118Z,20.07
2023-01-26T22:45:29.933Z,20.31
2023-01-26T22:47:56.365Z,19.71
2023-01-26T22:50:22.906Z,19.94
2023-01-26T22:52:49.310Z,20.29
2023-01-26T22:55:16.756Z,20.29
2023-01-26T22:57:43.250Z,21.80
2023-01-26T23:00:10.491Z,23.30
2023-01-26T23:02:37.547Z,23.57
2023-01-26T23:05:03.939Z,22.20
2023-01-26T23:07:30.949Z,21.67
2023-01-26T23:09:57.366Z,21.49
2023-01-26T23:12:23.896Z,22.44
2023-01-26T23:14:50.760Z,22.20
2023-01-26T23:17:17.161Z,21.94
2023-01-26T23:19:43.765Z,21.67
2023-01-26T23:22:11.553Z,22.65
2023-01-26T23:24:37.925Z,22.21
2023-01-26T23:32:35.186Z,23.57
2023-01-26T23:35:01.589Z,25.00
2023-01-26T23:37:28.058Z,25.58
2023-01-26T23:39:54.422Z,25.93
2023-01-26T23:42:20.850Z,25.57
2023-01-26T23:44:47.274Z,25.17
2023-01-26T23:47:13.777Z,24.40
2023-01-26T23:49:40.299Z,24.30
2023-01-26T23:52:06.815Z,23.64
2023-01-26T23:54:33.310Z,23.52
2023-01-26T23:56:59.772Z,23.97
2023-01-26T23:59:26.235Z,24.37
